Time;durP1;ratioP1;P1;durP2;ratioP2;P2;SDS_P1;SDS_P2;PMS_P1;PMS_P2;Temp;Humidity;BMP_temperature;BMP_pressure;BME280_temperature;BME280_humidity;BME280_pressure;Samples;Min_cycle;Max_cycle;Signal;HPM_P1;HPM_P2
2022/06/06 00:00:18;;;;;;;31.75;26.63;;;;;;;15.66;100.00;101450.69;5249940;28;20130;-64
2022/06/06 00:02:49;;;;;;;28.02;24.85;;;;;;;15.65;100.00;101449.06;5250145;28;20020;-61
2022/06/06 00:05:20;;;;;;;31.50;25.45;;;;;;;15.64;100.00;101442.78;5249669;28;20494;-61
2022/06/06 00:07:51;;;;;;;31.63;25.02;;;;;;;15.63;100.00;101441.16;5249268;28;20059;-61
2022/06/06 00:10:21;;;;;;;27.85;24.17;;;;;;;15.57;100.00;101431.41;5249821;28;20491;-61
2022/06/06 00:19:04;;;;;;;24.33;19.88;;;;;;;15.08;100.00;101357.69;5743176;22;20044;-82
2022/06/06 00:21:35;;;;;;;23.30;20.52;;;;;;;15.53;100.00;101430.28;5275062;28;20103;-81
2022/06/06 00:24:06;;;;;;;24.95;20.55;;;;;;;15.45;100.00;101428.13;5256958;28;20142;-82
2022/06/06 00:26:36;;;;;;;21.25;19.02;;;;;;;15.49;100.00;101424.56;5265355;28;20036;-82
2022/06/06 00:29:07;;;;;;;21.15;18.98;;;;;;;15.41;100.00;101432.47;5274696;28;20026;-81
2022/06/06 00:37:25;;;;;;;19.77;17.13;;;;;;;15.49;100.00;101421.84;5274504;28;20766;-81
2022/06/06 00:39:56;;;;;;;26.23;20.23;;;;;;;15.49;100.00;101421.84;5255731;28;20176;-82
2022/06/06 00:42:30;;;;;;;30.38;21.85;;;;;;;15.48;100.00;101428.38;5274427;28;20092;-80
2022/06/06 00:45:36;;;;;;;23.27;21.15;;;;;;;15.48;100.00;101433.81;5274723;28;20028;-82
2022/06/06 00:48:33;;;;;;;23.25;18.17;;;;;;;15.46;100.00;101432.47;5261387;28;20039;-82
2022/06/06 00:51:10;;;;;;;21.48;19.35;;;;;;;15.44;100.00;101431.91;5274058;28;20031;-82
2022/06/06 00:53:51;;;;;;;23.98;21.75;;;;;;;15.36;100.00;101429.75;5257194;28;20401;-83
2022/06/06 00:56:30;;;;;;;26.77;20.98;;;;;;;15.33;100.00;101430.28;5275293;28;20032;-81
2022/06/06 00:59:05;;;;;;;22.75;19.38;;;;;;;15.17;100.00;101405.84;5274816;28;20024;-81
2022/06/06 01:01:37;;;;;;;26.35;18.30;;;;;;;15.29;100.00;101430.03;5274706;28;20460;-82
2022/06/06 01:04:10;;;;;;;26.73;21.48;;;;;;;15.32;100.00;101443.09;5274503;28;20140;-82
2022/06/06 01:06:42;;;;;;;23.67;21.25;;;;;;;15.30;100.00;101433.59;5275399;28;20028;-80
2022/06/06 01:09:15;;;;;;;26.63;24.05;;;;;;;15.26;100.00;101435.22;5274202;28;20040;-80
2022/06/06 01:11:59;;;;;;;22.25;18.92;;;;;;;15.26;100.00;101427.88;5256653;28;20066;-82
2022/06/06 01:14:35;;;;;;;27.13;22.08;;;;;;;15.24;100.00;101430.03;5273574;28;20091;-81
2022/06/06 01:17:16;;;;;;;23.50;21.20;;;;;;;15.26;100.00;101424.34;5274631;28;20031;-80
2022/06/06 01:20:07;;;;;;;25.05;22.45;;;;;;;14.98;100.00;101382.19;5274448;28;20056;-81
2022/06/06 01:22:56;;;;;;;28.58;21.30;;;;;;;15.20;100.00;101421.59;5274062;28;20081;-81
2022/06/06 01:25:30;;;;;;;24.40;22.20;;;;;;;15.22;100.00;101407.72;5255390;28;20105;-81
2022/06/06 01:28:18;;;;;;;28.40;24.33;;;;;;;15.19;100.00;101406.38;5273666;28;20024;-81
2022/06/06 01:30:52;;;;;;;24.38;22.05;;;;;;;14.86;100.00;101361.50;5273077;28;20020;-80
2022/06/06 01:33:23;;;;;;;25.10;20.98;;;;;;;15.02;100.00;101391.41;5273560;28;20024;-81
2022/06/06 01:36:00;;;;;;;25.05;22.30;;;;;;;14.91;100.00;101387.06;5273957;28;20425;-82
2022/06/06 01:38:30;;;;;;;25.00;20.92;;;;;;;14.78;100.00;101381.06;5254825;28;20562;-80
2022/06/06 01:41:11;;;;;;;33.83;22.77;;;;;;;14.38;100.00;101348.41;5272966;28;20028;-81
2022/06/06 01:43:49;;;;;;;32.38;24.50;;;;;;;14.54;100.00;101393.56;5272115;28;20024;-81
2022/06/06 01:46:26;;;;;;;27.33;22.17;;;;;;;14.34;100.00;101386.16;5273435;28;20020;-81
2022/06/06 01:48:58;;;;;;;32.55;21.95;;;;;;;14.28;100.00;101403.53;5273499;28;20038;-79
2022/06/06 01:51:31;;;;;;;27.58;23.00;;;;;;;14.04;100.00;101376.03;5273165;28;20026;-79
2022/06/06 01:54:01;;;;;;;23.95;21.25;;;;;;;14.17;100.00;101407.28;5272600;28;20039;-80
2022/06/06 01:59:12;;;;;;;27.05;24.30;;;;;;;13.80;100.00;101380.28;6179350;22;20056;-82
2022/06/06 02:01:42;;;;;;;25.67;20.75;;;;;;;13.76;100.00;101376.44;5236352;28;20039;-82
2022/06/06 02:04:13;;;;;;;23.98;21.48;;;;;;;13.84;100.00;101387.63;5170797;28;20026;-82
2022/06/06 02:06:43;;;;;;;26.50;21.80;;;;;;;14.08;100.00;101419.75;5169577;28;20033;-80
2022/06/06 02:09:14;;;;;;;24.15;21.75;;;;;;;14.06;100.00;101411.88;5237618;28;20030;-78
2022/06/06 02:11:44;;;;;;;28.30;21.95;;;;;;;14.06;100.00;101411.06;5169741;28;20029;-80
2022/06/06 02:14:15;;;;;;;25.55;21.80;;;;;;;13.99;100.00;101405.88;5169082;28;20034;-82
2022/06/06 02:17:23;;;;;;;27.73;24.80;;;;;;;13.94;100.00;101405.03;5170276;28;20112;-82
2022/06/06 02:19:54;;;;;;;29.05;22.20;;;;;;;13.92;100.00;101410.72;5169963;28;20033;-82
2022/06/06 02:22:24;;;;;;;22.58;20.17;;;;;;;13.99;100.00;101405.03;5170571;28;20083;-82
2022/06/06 02:24:55;;;;;;;23.40;21.08;;;;;;;13.80;100.00;101374.84;5169740;28;20445;-78
2022/06/06 02:27:26;;;;;;;27.83;23.15;;;;;;;13.94;100.00;101411.28;5169561;28;20030;-79
2022/06/06 02:29:57;;;;;;;32.95;21.85;;;;;;;13.91;100.00;101409.06;5169983;28;20026;-78
2022/06/06 02:32:27;;;;;;;21.92;19.95;;;;;;;13.84;100.00;101408.53;5169864;28;20025;-80
2022/06/06 02:34:58;;;;;;;33.03;21.90;;;;;;;13.38;100.00;101356.69;5169309;28;20026;-81
2022/06/06 02:41:17;;;;;;;18.92;16.63;;;;;;;13.59;100.00;101419.22;5170693;28;20068;-80
2022/06/06 02:43:48;;;;;;;20.98;18.08;;;;;;;13.49;100.00;101412.66;5168823;28;20018;-79
2022/06/06 02:46:18;;;;;;;18.77;16.98;;;;;;;13.18;100.00;101367.44;5170351;28;20033;-81
2022/06/06 02:48:49;;;;;;;19.15;17.23;;;;;;;13.38;100.00;101426.41;5170772;28;20101;-81
2022/06/06 02:51:19;;;;;;;20.55;16.70;;;;;;;13.04;100.00;101375.16;5238642;28;20042;-82
2022/06/06 02:53:50;;;;;;;26.77;19.60;;;;;;;13.18;100.00;101389.13;5238027;28;20064;-81
2022/06/06 02:56:21;;;;;;;19.60;17.73;;;;;;;13.05;100.00;101365.13;5170715;28;20018;-81
2022/06/06 02:58:54;;;;;;;16.88;15.38;;;;;;;13.30;100.00;101425.00;5171003;28;20050;-81
2022/06/06 03:01:24;;;;;;;21.55;18.67;;;;;;;13.31;100.00;101418.50;5170735;28;20042;-82
2022/06/06 03:03:55;;;;;;;18.92;17.08;;;;;;;13.13;100.00;101389.06;5171382;28;20392;-81
2022/06/06 03:06:37;;;;;;;23.85;21.30;;;;;;;13.41;100.00;101424.00;5170730;28;20061;-81
2022/06/06 03:09:29;;;;;;;21.65;19.63;;;;;;;13.44;100.00;101422.66;5170131;28;20031;-81
2022/06/06 03:12:46;;;;;;;20.75;18.83;;;;;;;13.39;100.00;101418.03;5169645;28;20042;-81
2022/06/06 03:15:30;;;;;;;17.55;16.23;;;;;;;13.34;100.00;101415.28;5170167;28;20159;-82
2022/06/06 03:21:28;;;;;;;20.40;18.10;;;;;;;13.31;100.00;101421.22;5170429;28;20041;-81
2022/06/06 03:24:33;;;;;;;24.02;17.70;;;;;;;13.20;100.00;101414.09;5169825;28;20023;-81
2022/06/06 03:27:40;;;;;;;21.83;16.15;;;;;;;13.07;100.00;101411.78;5190680;28;20125;-82
2022/06/06 03:30:19;;;;;;;21.55;18.95;;;;;;;12.93;100.00;101413.31;5236818;28;20338;-80
2022/06/06 03:33:01;;;;;;;24.05;17.25;;;;;;;12.90;100.00;101413.81;5169548;28;20097;-81
2022/06/06 03:35:46;;;;;;;26.00;15.90;;;;;;;12.82;100.00;101410.50;5236217;28;20130;-81
2022/06/06 03:38:28;;;;;;;19.60;17.77;;;;;;;12.80;100.00;101423.47;5237141;28;20019;-79
2022/06/06 03:41:19;;;;;;;21.20;14.30;;;;;;;12.78;100.00;101417.50;5237437;28;20056;-81
2022/06/06 03:43:53;;;;;;;17.67;15.88;;;;;;;12.77;100.00;101425.88;5169674;28;20026;-81
2022/06/06 03:52:20;;;;;;;17.48;15.80;;;;;;;12.71;100.00;101432.31;5966951;22;20071;-81
2022/06/06 03:54:51;;;;;;;20.13;18.02;;;;;;;12.77;100.00;101445.69;5269612;28;20500;-82
2022/06/06 03:57:24;;;;;;;18.65;16.42;;;;;;;12.67;100.00;101425.81;5278497;28;20027;-82
2022/06/06 04:00:00;;;;;;;19.65;15.18;;;;;;;12.76;100.00;101443.22;5296654;28;20023;-81
2022/06/06 04:02:32;;;;;;;15.82;14.40;;;;;;;12.73;100.00;101449.97;5296871;28;20019;-81
2022/06/06 04:05:07;;;;;;;19.25;17.25;;;;;;;12.65;100.00;101438.78;5295809;28;20031;-81
2022/06/06 04:07:38;;;;;;;15.30;13.82;;;;;;;12.44;100.00;101410.66;5296590;28;20076;-81
2022/06/06 04:10:10;;;;;;;17.15;15.75;;;;;;;12.71;100.00;101459.41;5277834;28;20718;-81
2022/06/06 04:13:05;;;;;;;17.88;15.32;;;;;;;12.71;100.00;101460.25;5296230;28;20019;-81
2022/06/06 04:16:08;;;;;;;18.98;17.30;;;;;;;12.71;100.00;101467.56;5295627;28;20055;-82
2022/06/06 04:19:00;;;;;;;21.25;15.55;;;;;;;12.70;100.00;101461.34;5296380;28;20039;-82
2022/06/06 04:21:42;;;;;;;15.90;14.45;;;;;;;12.72;100.00;101466.47;5296913;28;20032;-82
2022/06/06 04:24:40;;;;;;;16.45;14.43;;;;;;;12.80;100.00;101458.72;5296068;28;20523;-81
2022/06/06 04:27:28;;;;;;;14.27;13.13;;;;;;;13.03;100.00;101456.75;5296488;28;20015;-82
2022/06/06 04:30:13;;;;;;;19.30;13.50;;;;;;;13.35;100.00;101451.34;5296489;28;20031;-84
2022/06/06 04:33:02;;;;;;;13.82;12.55;;;;;;;13.58;100.00;101459.09;5296257;28;20031;-79
2022/06/06 04:36:03;;;;;;;17.63;12.73;;;;;;;13.88;100.00;101463.91;5296382;28;20028;-81
2022/06/06 04:38:54;;;;;;;17.88;13.73;;;;;;;14.05;100.00;101470.00;5295793;28;20027;-80
2022/06/06 04:42:25;;;;;;;14.63;13.23;;;;;;;14.01;100.00;101477.03;5298748;28;20027;-82
2022/06/06 04:45:15;;;;;;;17.23;13.60;;;;;;;14.04;100.00;101471.06;5213249;28;20033;-81
2022/06/06 04:47:48;;;;;;;12.90;11.73;;;;;;;14.03;100.00;101471.34;5213178;28;20036;-81
2022/06/06 04:50:21;;;;;;;14.65;13.25;;;;;;;13.90;100.00;101459.03;5283765;28;20032;-82
2022/06/06 04:52:54;;;;;;;15.43;12.13;;;;;;;13.95;100.00;101464.50;5298354;28;20023;-82
2022/06/06 04:55:27;;;;;;;15.35;11.98;;;;;;;13.82;100.00;101451.41;5278038;28;20524;-82
2022/06/06 04:58:01;;;;;;;11.30;9.88;;;;;;;13.72;100.00;101446.72;5277311;28;20114;-80
2022/06/06 05:00:36;;;;;;;14.75;9.00;;;;;;;13.72;100.00;101456.78;5295684;28;20226;-82
2022/06/06 05:09:27;;;;;;;9.13;8.35;;;;;;;13.66;100.00;101455.09;5229429;22;20046;-61
2022/06/06 05:12:04;;;;;;;10.32;9.43;;;;;;;13.61;100.00;101444.19;5230075;28;20497;-60
2022/06/06 05:15:28;;;;;;;10.43;9.43;;;;;;;13.63;100.00;101448.28;5229038;28;20037;-61
2022/06/06 05:18:19;;;;;;;7.40;6.93;;;;;;;13.64;100.00;101447.22;5166872;28;20068;-61
2022/06/06 05:21:20;;;;;;;9.40;7.22;;;;;;;13.62;100.00;101443.13;5145053;28;20084;-61
2022/06/06 05:24:05;;;;;;;7.97;7.30;;;;;;;13.59;100.00;101443.66;5229285;28;20023;-61
2022/06/06 05:26:54;;;;;;;7.57;6.97;;;;;;;13.62;100.00;101443.13;5229770;28;20023;-61
2022/06/06 05:29:30;;;;;;;9.15;6.78;;;;;;;13.62;100.00;101432.28;5246853;28;20016;-61
2022/06/06 05:32:04;;;;;;;7.22;6.47;;;;;;;13.60;100.00;101437.97;5246541;28;20044;-61
2022/06/06 05:34:41;;;;;;;7.75;6.03;;;;;;;13.57;100.00;101445.84;5249558;28;20027;-60
2022/06/06 05:37:35;;;;;;;7.10;6.47;;;;;;;13.59;100.00;101439.03;5253522;28;20587;-61
2022/06/06 05:40:11;;;;;;;6.82;6.28;;;;;;;13.71;100.00;101455.94;5263344;28;20032;-61
2022/06/06 05:43:02;;;;;;;6.57;6.10;;;;;;;13.77;100.00;101454.91;5254093;28;20395;-61
2022/06/06 05:45:36;;;;;;;6.82;6.43;;;;;;;13.84;100.00;101457.41;5253641;28;20043;-61
2022/06/06 05:48:28;;;;;;;6.38;5.85;;;;;;;13.84;100.00;101457.41;5253744;28;20082;-63
2022/06/06 05:51:20;;;;;;;7.70;6.90;;;;;;;13.81;100.00;101457.91;5253288;28;20027;-61
2022/06/06 05:53:54;;;;;;;5.30;4.90;;;;;;;13.86;100.00;101452.50;5253412;28;20028;-61
2022/06/06 05:56:33;;;;;;;7.60;6.03;;;;;;;13.95;100.00;101448.19;5271319;28;20031;-61
2022/06/06 05:59:20;;;;;;;5.85;5.45;;;;;;;13.96;100.00;101436.25;5253248;28;20043;-61
2022/06/06 06:02:06;;;;;;;6.32;5.72;;;;;;;13.96;100.00;101447.13;5252543;28;20024;-61
2022/06/06 06:04:44;;;;;;;9.20;5.13;;;;;;;13.88;100.00;101446.78;5252845;28;20070;-61
2022/06/06 06:07:36;;;;;;;8.85;5.70;;;;;;;13.89;100.00;101449.25;5271226;28;20730;-62
2022/06/06 06:10:12;;;;;;;7.40;4.88;;;;;;;13.99;100.00;101449.31;5252401;28;20080;-61
2022/06/06 06:13:19;;;;;;;4.45;4.15;;;;;;;14.16;100.00;101449.09;5252876;28;20032;-59
2022/06/06 06:15:53;;;;;;;5.88;5.30;;;;;;;14.41;100.00;101453.88;5253095;28;20488;-61
2022/06/06 06:18:32;;;;;;;4.47;4.18;;;;;;;14.71;100.00;101464.81;5253420;28;20447;-60
2022/06/06 06:21:30;;;;;;;7.60;4.32;;;;;;;15.03;100.00;101448.25;5248477;28;20028;-61
2022/06/06 06:24:07;;;;;;;3.35;3.13;;;;;;;15.34;100.00;101456.41;5233160;28;20542;-59
2022/06/06 06:26:39;;;;;;;6.18;4.47;;;;;;;15.70;100.00;101455.31;5248494;28;20553;-61
2022/06/06 06:29:10;;;;;;;3.22;2.72;;;;;;;15.98;100.00;101461.22;5246442;28;20036;-59
2022/06/06 06:31:48;;;;;;;4.47;3.33;;;;;;;16.25;100.00;101456.22;5231521;28;20076;-61
2022/06/06 06:34:41;;;;;;;3.53;3.33;;;;;;;16.53;100.00;101462.91;5231999;28;20053;-61
2022/06/06 06:37:47;;;;;;;3.53;2.67;;;;;;;16.87;100.00;101461.09;5231892;28;20386;-59
2022/06/06 06:40:36;;;;;;;2.95;2.70;;;;;;;17.20;100.00;101455.94;5164450;28;20037;-61
2022/06/06 06:43:25;;;;;;;3.13;2.95;;;;;;;17.43;100.00;101466.09;5231321;28;20075;-63
2022/06/06 06:46:00;;;;;;;2.97;2.78;;;;;;;17.69;100.00;101458.50;5230864;28;20448;-61
2022/06/06 06:48:38;;;;;;;3.97;2.90;;;;;;;17.98;100.00;101466.66;5230859;28;20486;-59
2022/06/06 06:51:24;;;;;;;4.90;2.40;;;;;;;18.04;100.00;101472.88;5231039;28;20037;-60
2022/06/06 06:54:31;;;;;;;2.53;2.42;;;;;;;17.75;100.00;101465.53;5231035;28;20081;-59
2022/06/06 06:57:23;;;;;;;2.30;2.20;;;;;;;17.79;100.00;101465.78;5212574;28;20044;-61
2022/06/06 07:08:48;;;;;;;1.85;1.75;;;;;;;17.26;100.00;101456.72;5306842;28;20118;-58
2022/06/06 07:11:37;;;;;;;2.47;2.28;;;;;;;17.51;100.00;101460.03;5305677;28;20023;-59
2022/06/06 07:14:47;;;;;;;2.45;2.42;;;;;;;17.93;100.00;101466.69;5305206;28;20033;-61
2022/06/06 07:17:18;;;;;;;;;;;;;;;18.27;100.00;101461.09;5305848;28;20060;-62
2022/06/06 07:19:53;;;;;;;3.53;2.00;;;;;;;18.48;100.00;101467.13;5305314;28;19916;-62
2022/06/06 07:22:28;;;;;;;2.50;2.30;;;;;;;18.70;100.00;101458.38;5305175;28;20019;-60
2022/06/06 07:25:00;;;;;;;2.78;2.63;;;;;;;18.67;100.00;101456.25;5305256;28;20157;-60
2022/06/06 07:27:31;;;;;;;4.18;2.25;;;;;;;18.70;100.00;101451.00;5305350;28;20030;-62
2022/06/06 07:30:02;;;;;;;3.05;2.85;;;;;;;18.78;100.00;101449.50;5305250;28;20097;-60
2022/06/06 07:32:54;;;;;;;2.25;1.88;;;;;;;19.22;100.00;101462.75;5305407;28;20152;-61
2022/06/06 07:35:34;;;;;;;3.08;2.63;;;;;;;19.65;100.00;101440.66;5304638;28;20402;-60
2022/06/06 07:38:37;;;;;;;2.47;2.38;;;;;;;20.29;100.00;101458.03;5304915;28;20035;-60
2022/06/06 07:41:34;;;;;;;2.03;1.92;;;;;;;20.73;100.00;101455.44;5278580;28;20180;-60
2022/06/06 07:44:04;;;;;;;10.07;2.35;;;;;;;20.38;100.00;101458.97;5284623;28;20039;-61
2022/06/06 07:47:01;;;;;;;1.48;1.38;;;;;;;20.38;100.00;101475.44;5283720;28;20024;-62
2022/06/06 07:50:01;;;;;;;2.13;2.05;;;;;;;20.26;100.00;101464.94;5283699;28;20466;-62
2022/06/06 07:52:46;;;;;;;5.53;3.17;;;;;;;19.81;100.00;101456.53;5283800;28;20484;-60
2022/06/06 07:55:26;;;;;;;2.08;1.90;;;;;;;19.65;100.00;101470.78;5282928;28;20030;-59
2022/06/06 07:58:19;;;;;;;2.15;1.80;;;;;;;19.09;100.00;101482.69;5283596;28;20513;-58
2022/06/06 08:01:13;;;;;;;2.50;2.40;;;;;;;18.87;100.00;101473.16;5283380;28;20452;-61
2022/06/06 08:03:51;;;;;;;3.20;2.28;;;;;;;18.40;100.00;101484.19;5282621;28;20063;-59
2022/06/06 08:06:51;;;;;;;2.47;2.38;;;;;;;18.12;100.00;101485.91;5283513;28;20019;-61
2022/06/06 08:09:21;;;;;;;;;;;;;;;18.04;100.00;101490.09;5256467;28;20038;-62
2022/06/06 08:12:08;;;;;;;3.30;3.10;;;;;;;17.81;100.00;101485.44;5279600;28;20299;-61
2022/06/06 08:15:11;;;;;;;4.68;3.00;;;;;;;17.62;100.00;101471.63;5288425;28;20112;-62
2022/06/06 08:17:48;;;;;;;3.00;2.80;;;;;;;17.64;100.00;101468.63;5269192;28;20496;-61
2022/06/06 08:20:27;;;;;;;2.60;2.50;;;;;;;18.00;100.00;101456.25;5270273;28;20099;-62
2022/06/06 08:23:00;;;;;;;3.33;2.40;;;;;;;18.40;100.00;101441.25;5269083;28;20040;-58
2022/06/06 08:25:33;;;;;;;2.05;1.95;;;;;;;18.91;100.00;101464.34;5268792;28;20028;-60
2022/06/06 08:28:04;;;;;;;1.73;1.73;;;;;;;19.21;100.00;101472.91;5269175;28;20039;-61
2022/06/06 08:30:37;;;;;;;2.90;2.70;;;;;;;19.67;100.00;101458.44;5268487;28;20495;-63
2022/06/06 08:33:07;;;;;;;2.65;2.55;;;;;;;20.09;100.00;101462.00;5286734;28;20027;-62
2022/06/06 08:35:53;;;;;;;4.47;3.03;;;;;;;19.98;100.00;101466.06;5274157;28;20408;-63
2022/06/06 08:38:38;;;;;;;2.55;2.45;;;;;;;20.31;100.00;101473.06;5268644;28;20513;-62
2022/06/06 08:41:21;;;;;;;2.72;2.53;;;;;;;20.60;100.00;101455.47;5268864;28;20024;-58
2022/06/06 08:44:20;;;;;;;3.03;2.85;;;;;;;20.94;100.00;101449.47;5289339;28;20418;-59
2022/06/06 08:47:10;;;;;;;4.90;2.42;;;;;;;20.80;100.00;101450.31;5289620;28;20020;-65
2022/06/06 08:53:19;;;;;;;2.92;2.80;;;;;;;20.44;100.00;101458.56;5272081;28;20066;-59
2022/06/06 08:56:01;;;;;;;2.05;1.95;;;;;;;19.99;100.00;101453.97;5287324;28;20367;-62
2022/06/06 08:58:52;;;;;;;5.65;2.30;;;;;;;19.15;100.00;101454.94;5289883;28;20111;-62
2022/06/06 09:01:46;;;;;;;3.10;3.00;;;;;;;19.08;100.00;101445.47;5289045;28;20034;-63
2022/06/06 09:04:29;;;;;;;2.38;2.15;;;;;;;19.45;100.00;101439.91;5288312;28;20024;-59
2022/06/06 09:07:18;;;;;;;1.75;1.65;;;;;;;20.01;100.00;101449.81;5289160;28;20091;-59
2022/06/06 09:10:13;;;;;;;3.22;2.28;;;;;;;20.53;100.00;101444.91;5289524;28;20028;-62
2022/06/06 09:13:18;;;;;;;5.28;2.53;;;;;;;20.71;100.00;101441.22;5290348;28;20035;-66
2022/06/06 09:16:26;;;;;;;2.72;2.53;;;;;;;20.54;100.00;101430.06;5289248;28;20059;-61
2022/06/06 09:19:15;;;;;;;2.55;2.35;;;;;;;20.93;100.00;101434.09;5288859;28;20038;-62
2022/06/06 09:22:25;;;;;;;2.17;2.08;;;;;;;21.13;100.00;101403.38;5288379;28;20028;-62
2022/06/06 09:25:33;;;;;;;2.70;2.50;;;;;;;21.39;100.00;101442.84;5284430;28;20062;-60
2022/06/06 09:28:24;;;;;;;2.63;2.47;;;;;;;20.89;100.00;101447.66;5288793;28;20512;-63
2022/06/06 09:31:10;;;;;;;1.52;1.52;;;;;;;20.30;100.00;101448.69;5288616;28;20028;-61
2022/06/06 09:33:46;;;;;;;2.08;2.03;;;;;;;20.41;100.00;101430.94;5288577;28;20031;-61
2022/06/06 09:36:38;;;;;;;2.50;2.40;;;;;;;21.05;100.00;101428.88;5288131;28;20077;-58
2022/06/06 09:39:13;;;;;;;3.15;2.00;;;;;;;21.53;100.00;101424.34;5288572;28;20031;-62
2022/06/06 09:41:55;;;;;;;1.92;1.83;;;;;;;21.48;100.00;101435.47;5288367;28;20330;-62
2022/06/06 09:44:57;;;;;;;2.67;2.38;;;;;;;21.04;100.00;101435.50;5288193;28;20209;-59
2022/06/06 09:47:31;;;;;;;2.25;2.15;;;;;;;21.32;100.00;101427.94;5288249;28;20496;-62
2022/06/06 09:50:22;;;;;;;1.98;1.88;;;;;;;21.79;100.00;101421.69;5288716;28;20030;-65
2022/06/06 09:53:13;;;;;;;2.40;2.17;;;;;;;22.30;100.00;101413.94;5239713;28;20045;-62
2022/06/06 09:59:10;;;;;;;1.67;1.67;;;;;;;22.24;99.54;101430.59;5227099;28;20037;-61
2022/06/06 10:01:40;;;;;;;2.35;1.90;;;;;;;22.49;99.40;101417.22;5226701;28;20454;-61
2022/06/06 10:04:33;;;;;;;2.45;2.35;;;;;;;22.08;90.06;101429.44;5225550;28;20053;-60
2022/06/06 10:07:15;;;;;;;1.63;1.63;;;;;;;21.63;94.43;101422.44;5225415;28;20025;-61
2022/06/06 10:10:18;;;;;;;1.58;1.48;;;;;;;20.97;96.76;101424.94;5225400;28;20481;-64
2022/06/06 10:12:49;;;;;;;2.33;1.50;;;;;;;20.43;98.16;101417.72;5224310;28;20528;-61
2022/06/06 10:15:43;;;;;;;5.35;1.85;;;;;;;20.04;100.00;101421.78;5226592;28;20061;-63
2022/06/06 10:18:26;;;;;;;1.83;1.52;;;;;;;19.71;100.00;101429.31;5224959;28;20115;-65
2022/06/06 10:21:30;;;;;;;1.75;1.73;;;;;;;19.44;100.00;101421.84;5225026;28;20033;-64
2022/06/06 10:24:19;;;;;;;2.28;2.17;;;;;;;19.21;100.00;101425.53;5226291;28;20505;-63
2022/06/06 10:27:02;;;;;;;3.65;2.55;;;;;;;19.22;100.00;101419.75;5225178;28;20503;-61
2022/06/06 10:30:10;;;;;;;1.83;1.83;;;;;;;19.23;100.00;101415.09;5225341;28;20025;-62
2022/06/06 10:33:12;;;;;;;1.98;1.88;;;;;;;20.06;100.00;101410.53;5226216;28;20067;-61
2022/06/06 10:35:58;;;;;;;2.20;2.10;;;;;;;20.47;100.00;101410.50;5225842;28;20028;-61
2022/06/06 10:38:53;;;;;;;1.42;1.42;;;;;;;20.68;100.00;101411.63;5225217;28;20032;-61
2022/06/06 10:41:33;;;;;;;2.13;2.03;;;;;;;21.10;100.00;101401.25;5224687;28;20029;-61
2022/06/06 10:44:22;;;;;;;;;;;;;;;21.38;100.00;101405.50;5225110;28;20028;-61
2022/06/06 10:47:11;;;;;;;;;;;;;;;21.60;100.00;101399.16;5225029;28;19924;-62
2022/06/06 10:49:55;;;;;;;1.80;1.70;;;;;;;22.12;100.00;101400.16;5226232;28;19935;-62
2022/06/06 10:52:59;;;;;;;4.03;1.80;;;;;;;22.34;95.46;101393.69;5225397;28;20025;-60
2022/06/06 10:55:48;;;;;;;2.67;1.75;;;;;;;22.01;97.97;101401.56;5224783;28;20025;-61
2022/06/06 10:58:36;;;;;;;2.30;1.97;;;;;;;21.52;94.26;101411.72;5224508;28;20025;-63
2022/06/06 11:01:25;;;;;;;1.88;1.77;;;;;;;21.08;96.69;101414.50;5225627;28;20287;-63
2022/06/06 11:04:14;;;;;;;2.03;1.92;;;;;;;20.80;98.93;101413.81;5223429;28;20028;-61
2022/06/06 11:06:57;;;;;;;8.13;2.20;;;;;;;20.72;99.84;101412.66;5240019;28;20021;-61
2022/06/06 11:10:05;;;;;;;4.88;2.95;;;;;;;20.36;100.00;101412.63;5236018;22;20491;-62
2022/06/06 11:12:50;;;;;;;2.72;1.70;;;;;;;19.94;100.00;101394.59;5224629;28;20029;-64
2022/06/06 11:15:22;;;;;;;3.10;2.20;;;;;;;19.88;100.00;101395.81;5224431;28;20033;-62
2022/06/06 11:18:10;;;;;;;2.00;1.90;;;;;;;20.04;100.00;101416.31;5223206;28;20029;-62
2022/06/06 11:20:44;;;;;;;1.33;1.33;;;;;;;20.21;100.00;101402.00;5223186;28;20488;-61
2022/06/06 11:23:37;;;;;;;1.48;1.38;;;;;;;20.64;100.00;101405.13;5239885;28;20033;-62
2022/06/06 11:26:26;;;;;;;1.60;1.50;;;;;;;20.67;100.00;101403.72;5219736;28;20335;-61
2022/06/06 11:29:38;;;;;;;1.90;1.67;;;;;;;20.38;100.00;101393.13;5220913;28;20029;-61
2022/06/06 11:33:04;;;;;;;3.90;1.80;;;;;;;20.19;100.00;101413.25;5239645;28;20147;-61
2022/06/06 11:36:06;;;;;;;2.00;1.90;;;;;;;20.13;100.00;101403.50;5224212;28;20591;-60
2022/06/06 11:39:14;;;;;;;3.33;1.80;;;;;;;20.09;100.00;101405.25;5223521;28;20523;-60
2022/06/06 11:41:56;;;;;;;1.73;1.63;;;;;;;20.68;100.00;101391.63;5240437;28;20029;-61
2022/06/06 11:45:02;;;;;;;1.95;1.95;;;;;;;21.56;100.00;101385.22;5240210;28;20048;-61
2022/06/06 11:47:38;;;;;;;3.05;2.72;;;;;;;21.62;99.76;101391.41;5207975;28;20117;-60
2022/06/06 11:50:18;;;;;;;1.85;1.75;;;;;;;21.51;100.00;101388.13;5244284;28;20036;-60
2022/06/06 11:52:52;;;;;;;3.90;2.83;;;;;;;21.08;100.00;101368.63;5244325;28;20028;-60
2022/06/06 11:55:45;;;;;;;2.10;2.00;;;;;;;20.31;100.00;101388.03;5243944;28;20029;-60
2022/06/06 11:58:28;;;;;;;2.08;1.95;;;;;;;19.63;100.00;101397.16;5244222;28;20040;-60
2022/06/06 12:01:27;;;;;;;5.05;1.52;;;;;;;19.21;100.00;101415.41;5244261;28;20025;-60
2022/06/06 12:04:21;;;;;;;1.95;1.77;;;;;;;18.80;100.00;101409.78;5227057;28;20508;-61
2022/06/06 12:07:10;;;;;;;4.30;1.80;;;;;;;18.86;100.00;101410.50;5243960;28;20065;-60
2022/06/06 12:09:57;;;;;;;4.95;2.17;;;;;;;18.75;100.00;101412.63;5244074;28;20123;-62
2022/06/06 12:12:46;;;;;;;1.33;1.33;;;;;;;18.67;100.00;101424.22;5244439;28;20024;-62
2022/06/06 12:15:38;;;;;;;1.50;1.42;;;;;;;18.65;100.00;101420.16;5228221;28;20078;-60
2022/06/06 12:18:33;;;;;;;2.45;2.35;;;;;;;18.55;100.00;101407.41;5243866;28;20103;-61
2022/06/06 12:21:40;;;;;;;2.05;1.95;;;;;;;18.54;100.00;101412.06;5243829;28;20033;-62
2022/06/06 12:24:35;;;;;;;1.50;1.50;;;;;;;18.63;100.00;101423.19;5243810;28;20032;-61
2022/06/06 12:27:17;;;;;;;2.90;1.83;;;;;;;18.71;100.00;101411.56;5243783;28;20056;-62
2022/06/06 12:30:21;;;;;;;2.35;1.70;;;;;;;18.81;100.00;101411.41;5243792;28;20037;-61
2022/06/06 12:33:07;;;;;;;1.75;1.65;;;;;;;18.90;100.00;101414.28;5243967;28;20112;-61
2022/06/06 12:36:09;;;;;;;2.90;1.67;;;;;;;19.02;100.00;101386.47;5227069;28;20029;-61
2022/06/06 12:39:07;;;;;;;1.65;1.65;;;;;;;19.25;100.00;101415.63;5226911;28;20029;-68
2022/06/06 12:42:07;;;;;;;2.20;2.10;;;;;;;19.35;100.00;101407.19;5227353;28;20025;-61
2022/06/06 12:45:07;;;;;;;1.65;1.60;;;;;;;19.48;100.00;101414.66;5219371;28;20374;-61
2022/06/06 12:48:09;;;;;;;2.00;1.90;;;;;;;19.54;100.00;101412.66;5226902;28;20086;-61
2022/06/06 12:51:32;;;;;;;2.42;1.75;;;;;;;19.55;100.00;101414.28;5243759;28;20048;-61
2022/06/06 12:57:59;;;;;;;4.10;1.80;;;;;;;18.73;100.00;101427.69;5225451;28;20462;-62
2022/06/06 13:03:25;;;;;;;1.75;1.70;;;;;;;18.92;100.00;101422.19;5227946;28;20091;-62
2022/06/06 13:06:08;;;;;;;2.20;2.00;;;;;;;18.71;100.00;101414.31;5243046;28;20037;-62
2022/06/06 13:08:52;;;;;;;1.77;1.58;;;;;;;18.70;100.00;101415.44;5243217;28;20060;-62
2022/06/06 13:11:46;;;;;;;1.70;1.60;;;;;;;18.74;100.00;101410.19;5226428;28;20032;-62
2022/06/06 13:14:34;;;;;;;2.45;2.33;;;;;;;18.85;100.00;101423.38;5227694;28;20491;-62
2022/06/06 13:20:16;;;;;;;4.35;2.58;;;;;;;19.77;100.00;101411.66;5229204;28;20278;-81
2022/06/06 13:23:06;;;;;;;1.95;1.85;;;;;;;20.10;100.00;101401.38;5207018;28;20033;-80
2022/06/06 13:25:40;;;;;;;;;;;;;;;20.40;100.00;101394.44;5215145;28;20025;-79
2022/06/06 13:28:25;;;;;;;1.67;1.67;;;;;;;20.66;100.00;101402.91;5215337;28;19909;-81